Time;durP1;ratioP1;P1;durP2;ratioP2;P2;SDS_P1;SDS_P2;PMS_P1;PMS_P2;Temp;Humidity;BMP_temperature;BMP_pressure;BME280_temperature;BME280_humidity;BME280_pressure;Samples;Min_cycle;Max_cycle;Signal;HPM_P1;HPM_P2
2023/09/06 00:00:43;;;;;;;2.75;1.90;;;;;;;24.83;40.26;99080.53;2091812;28;20121;-55
2023/09/06 00:01:45;;;;;;;4.25;1.98;;;;;;;24.85;40.27;99079.22;2090328;28;20048;-57
2023/09/06 00:02:46;;;;;;;6.18;1.95;;;;;;;24.85;39.73;99071.09;2091695;28;20048;-55
2023/09/06 00:03:48;;;;;;;3.40;2.28;;;;;;;24.84;39.83;99076.72;2094184;28;20044;-54
2023/09/06 00:04:50;;;;;;;2.60;2.10;;;;;;;24.88;39.63;99075.22;2092079;28;27643;-48
2023/09/06 00:05:51;;;;;;;2.17;1.95;;;;;;;24.84;40.05;99074.03;2091309;28;20048;-54
2023/09/06 00:06:53;;;;;;;5.25;2.03;;;;;;;24.85;40.29;99075.66;2091858;28;20135;-55
2023/09/06 00:07:54;;;;;;;3.58;2.00;;;;;;;24.89;39.75;99074.16;2091423;28;20055;-51
2023/09/06 00:08:55;;;;;;;2.65;2.03;;;;;;;24.89;40.14;99074.16;2086159;28;20063;-48
2023/09/06 00:09:56;;;;;;;1.77;1.67;;;;;;;24.90;39.78;99071.19;2081125;28;20048;-57
2023/09/06 00:11:01;;;;;;;2.97;2.25;;;;;;;24.82;40.34;99068.00;2092095;28;20078;-53
2023/09/06 00:12:03;;;;;;;3.25;1.83;;;;;;;24.87;39.92;99074.38;2087210;28;20552;-53
2023/09/06 00:13:06;;;;;;;2.58;1.98;;;;;;;24.89;39.92;99071.44;2081724;28;20873;-54
2023/09/06 00:14:08;;;;;;;3.10;2.25;;;;;;;24.86;39.80;99075.44;2077206;28;20411;-54
2023/09/06 00:15:09;;;;;;;4.80;1.75;;;;;;;24.90;39.76;99071.19;2077814;28;20049;-54
2023/09/06 00:16:12;;;;;;;3.70;1.85;;;;;;;24.89;39.85;99068.72;2082491;28;20053;-50
2023/09/06 00:17:13;;;;;;;3.00;1.65;;;;;;;24.91;39.74;99064.72;2083931;28;20725;-50
2023/09/06 00:18:15;;;;;;;2.90;1.80;;;;;;;24.91;39.84;99069.31;2084294;28;20052;-53
2023/09/06 00:19:17;;;;;;;1.88;1.60;;;;;;;24.88;40.02;99069.78;2092446;28;20505;-53
2023/09/06 00:20:20;;;;;;;3.30;2.35;;;;;;;24.87;40.29;99060.81;2091018;28;20044;-53
2023/09/06 00:21:23;;;;;;;2.25;1.95;;;;;;;24.82;39.90;99059.84;2093702;28;20493;-51
2023/09/06 00:22:25;;;;;;;2.63;1.73;;;;;;;24.80;40.21;99065.53;2091697;28;20043;-52
2023/09/06 00:23:26;;;;;;;2.38;1.88;;;;;;;24.87;40.01;99059.97;2091682;28;20063;-53
2023/09/06 00:24:28;;;;;;;3.05;2.13;;;;;;;24.85;39.88;99071.09;2087268;28;20044;-49
2023/09/06 00:25:30;;;;;;;3.85;1.58;;;;;;;24.87;40.23;99076.25;2086691;28;20048;-53
2023/09/06 00:26:32;;;;;;;2.75;1.85;;;;;;;24.86;39.99;99070.00;2093100;28;20534;-53
2023/09/06 00:27:33;;;;;;;3.15;2.05;;;;;;;24.80;40.18;99072.84;2088383;28;20048;-52
2023/09/06 00:28:35;;;;;;;1.60;1.50;;;;;;;24.84;40.07;99069.41;2086149;28;20364;-53
2023/09/06 00:29:36;;;;;;;2.42;1.70;;;;;;;24.85;40.24;99067.53;2092339;28;20068;-51
2023/09/06 00:30:38;;;;;;;2.35;1.63;;;;;;;24.87;40.26;99068.13;2093475;28;20625;-50
2023/09/06 00:31:39;;;;;;;2.25;1.70;;;;;;;24.80;40.11;99065.53;2091883;28;21046;-53
2023/09/06 00:32:39;;;;;;;3.63;2.03;;;;;;;24.82;39.93;99066.09;2093122;28;20057;-49
2023/09/06 00:33:42;;;;;;;4.15;2.35;;;;;;;24.82;40.50;99063.38;2084627;28;20211;-51
2023/09/06 00:34:45;;;;;;;1.85;1.52;;;;;;;24.87;40.51;99066.22;2088971;28;22436;-53
2023/09/06 00:35:47;;;;;;;2.47;1.80;;;;;;;24.86;40.36;99063.78;2091314;28;20063;-53
2023/09/06 00:36:48;;;;;;;5.18;1.75;;;;;;;24.83;40.26;99066.94;2089369;28;20489;-51
2023/09/06 00:37:50;;;;;;;1.80;1.50;;;;;;;24.84;40.19;99058.56;2096256;28;20056;-50
2023/09/06 00:38:51;;;;;;;2.42;2.22;;;;;;;24.86;40.26;99075.44;2093841;27;20626;-54
2023/09/06 00:39:53;;;;;;;2.90;2.47;;;;;;;24.87;39.83;99065.41;2090283;28;20131;-53
2023/09/06 00:40:54;;;;;;;3.25;2.35;;;;;;;24.86;40.23;99063.78;2083699;28;20090;-52
2023/09/06 00:41:56;;;;;;;3.50;2.25;;;;;;;24.86;39.94;99069.19;2087907;28;20044;-51
2023/09/06 00:42:59;;;;;;;3.42;1.92;;;;;;;24.86;40.31;99066.47;2092324;28;20051;-51
2023/09/06 00:44:01;;;;;;;2.45;1.63;;;;;;;24.85;39.94;99071.09;2088053;28;23127;-52
2023/09/06 00:45:02;;;;;;;3.67;2.10;;;;;;;24.86;39.77;99074.63;2091436;28;20040;-52
2023/09/06 00:46:07;;;;;;;1.98;1.50;;;;;;;24.87;39.94;99071.66;2089237;28;20145;-50
2023/09/06 00:47:09;;;;;;;3.20;1.83;;;;;;;24.81;40.13;99067.19;2090297;28;20060;-52
2023/09/06 00:48:12;;;;;;;3.78;1.80;;;;;;;24.74;39.86;99071.91;2089373;28;20056;-49
2023/09/06 00:49:14;;;;;;;2.40;1.88;;;;;;;24.69;40.59;99064.44;2093311;28;20048;-53
2023/09/06 00:50:17;;;;;;;2.92;1.92;;;;;;;24.81;40.00;99063.63;2090150;28;20039;-52
2023/09/06 00:51:20;;;;;;;2.03;1.77;;;;;;;24.82;39.94;99066.09;2093605;28;20123;-52
2023/09/06 00:52:21;;;;;;;3.17;2.03;;;;;;;24.73;40.10;99060.19;2092176;28;20055;-49
2023/09/06 00:53:25;;;;;;;1.77;1.50;;;;;;;24.77;40.24;99059.72;2091688;28;20078;-51
2023/09/06 00:54:26;;;;;;;3.92;1.60;;;;;;;24.82;39.91;99065.28;2091119;28;20044;-53
2023/09/06 00:55:28;;;;;;;2.83;2.08;;;;;;;24.82;39.94;99065.28;2090082;28;20533;-51
2023/09/06 00:56:29;;;;;;;1.83;1.63;;;;;;;24.75;40.08;99062.69;2092891;28;20044;-53
2023/09/06 00:57:32;;;;;;;3.03;2.00;;;;;;;24.79;39.89;99063.84;2092585;28;20040;-50
2023/09/06 00:58:32;;;;;;;2.30;1.50;;;;;;;24.80;39.96;99056.56;2095228;28;20053;-51
2023/09/06 00:59:35;;;;;;;3.28;2.17;;;;;;;24.72;40.24;99055.84;2090430;28;20172;-53
2023/09/06 01:00:36;;;;;;;2.50;1.83;;;;;;;24.78;40.28;99055.97;2088784;28;20064;-50
2023/09/06 01:01:38;;;;;;;3.60;2.70;;;;;;;24.79;39.87;99047.59;2091953;28;20135;-50
2023/09/06 01:02:39;;;;;;;1.75;1.58;;;;;;;24.83;40.08;99047.97;2093465;28;20056;-52
2023/09/06 01:03:41;;;;;;;3.08;2.13;;;;;;;24.80;40.12;99048.44;2090807;28;20132;-53
2023/09/06 01:04:42;;;;;;;2.92;1.65;;;;;;;24.82;40.01;99043.56;2090988;28;20044;-52
2023/09/06 01:05:49;;;;;;;2.00;1.80;;;;;;;24.84;40.12;99050.44;2091173;28;20047;-52
2023/09/06 01:06:56;;;;;;;2.53;1.80;;;;;;;24.83;39.73;99040.66;2091746;28;20147;-50
2023/09/06 01:08:01;;;;;;;2.70;1.95;;;;;;;24.84;39.60;99046.88;2092096;28;20056;-53
2023/09/06 01:09:05;;;;;;;2.35;1.58;;;;;;;24.84;39.95;99047.72;2087501;28;20569;-50
2023/09/06 01:10:07;;;;;;;1.77;1.60;;;;;;;24.82;39.81;99043.56;2091609;28;20058;-51
2023/09/06 01:11:21;;;;;;;2.97;2.03;;;;;;;24.80;39.69;99048.44;2091398;28;20035;-51
2023/09/06 01:12:22;;;;;;;3.92;2.53;;;;;;;24.77;39.94;99038.88;2091337;28;20051;-52
2023/09/06 01:13:23;;;;;;;2.33;1.58;;;;;;;24.83;39.60;99042.53;2093647;28;21667;-52
2023/09/06 01:14:24;;;;;;;4.20;1.65;;;;;;;24.86;40.03;99050.22;2090390;28;20056;-52
2023/09/06 01:15:26;;;;;;;2.33;1.85;;;;;;;24.88;39.79;99053.50;2093517;28;20063;-51
2023/09/06 01:16:30;;;;;;;3.70;2.47;;;;;;;24.81;40.00;99058.22;2088633;28;20100;-52
2023/09/06 01:17:35;;;;;;;1.73;1.60;;;;;;;24.79;39.50;99053.00;2089205;28;20183;-50
2023/09/06 01:18:36;;;;;;;2.78;1.75;;;;;;;24.79;39.66;99054.91;2092245;28;20048;-53
2023/09/06 01:19:44;;;;;;;2.40;1.80;;;;;;;24.81;39.50;99060.94;2090436;28;20574;-53
2023/09/06 01:20:52;;;;;;;2.95;1.95;;;;;;;24.79;39.56;99063.03;2092824;28;20048;-53
2023/09/06 01:22:06;;;;;;;3.25;2.08;;;;;;;24.78;39.52;99072.25;2089646;28;20130;-51
2023/09/06 01:23:15;;;;;;;2.63;1.77;;;;;;;24.79;39.73;99055.72;2087693;28;20147;-50
2023/09/06 01:24:20;;;;;;;2.95;1.73;;;;;;;24.81;39.49;99060.94;2089629;28;20048;-51
2023/09/06 01:25:21;;;;;;;4.43;2.00;;;;;;;24.78;39.45;99055.97;2087972;28;20036;-50
2023/09/06 01:26:23;;;;;;;2.50;1.40;;;;;;;24.80;39.38;99059.28;2090521;28;20063;-52
2023/09/06 01:27:24;;;;;;;2.78;1.67;;;;;;;24.79;39.45;99061.16;2089415;28;20048;-57
2023/09/06 01:28:27;;;;;;;3.25;1.67;;;;;;;24.80;39.53;99056.56;2093283;28;20105;-53
2023/09/06 01:29:30;;;;;;;2.20;1.80;;;;;;;24.78;39.32;99064.09;2089580;28;20040;-52
2023/09/06 01:30:30;;;;;;;4.03;1.50;;;;;;;24.80;39.36;99059.28;2093393;28;20053;-49
2023/09/06 01:31:32;;;;;;;1.58;1.48;;;;;;;24.79;39.46;99063.84;2089469;28;20063;-49
2023/09/06 01:32:34;;;;;;;3.42;1.60;;;;;;;24.79;39.02;99063.03;2090592;28;20053;-51
2023/09/06 01:33:36;;;;;;;1.52;1.40;;;;;;;24.77;39.40;99057.88;2090900;28;20055;-50
2023/09/06 01:34:37;;;;;;;2.30;1.70;;;;;;;24.77;39.16;99049.72;2092216;28;20533;-49
2023/09/06 01:35:39;;;;;;;3.10;1.60;;;;;;;24.79;39.09;99057.63;2091844;28;20101;-48
2023/09/06 01:36:40;;;;;;;2.45;1.50;;;;;;;24.79;39.01;99054.91;2094837;28;20073;-57
2023/09/06 01:37:42;;;;;;;4.65;1.85;;;;;;;24.77;38.93;99047.00;2090992;28;20143;-51
2023/09/06 01:38:43;;;;;;;3.08;1.42;;;;;;;24.76;39.18;99045.34;2086925;28;20175;-53
2023/09/06 01:39:46;;;;;;;2.10;1.83;;;;;;;24.78;39.05;99045.94;2090116;28;20102;-53
2023/09/06 01:40:47;;;;;;;1.85;1.52;;;;;;;24.65;39.20;99048.88;2091079;28;20473;-49
2023/09/06 01:41:49;;;;;;;1.55;1.45;;;;;;;24.75;39.22;99043.69;2090526;28;20059;-52
2023/09/06 01:42:50;;;;;;;1.50;1.40;;;;;;;24.68;39.49;99049.25;2090019;28;20044;-52
2023/09/06 01:43:54;;;;;;;2.65;2.45;;;;;;;24.73;39.04;99043.09;2092176;28;20528;-53
2023/09/06 01:44:54;;;;;;;3.58;1.65;;;;;;;24.75;39.16;99046.41;2087278;28;20133;-52
2023/09/06 01:45:55;;;;;;;2.47;1.63;;;;;;;24.72;38.88;99046.88;2093003;28;20120;-54
2023/09/06 01:46:57;;;;;;;4.20;2.63;;;;;;;24.68;38.85;99038.41;2086274;28;20111;-53
2023/09/06 01:47:58;;;;;;;2.08;1.60;;;;;;;24.66;38.98;99036.97;2091140;28;20051;-50
2023/09/06 01:49:00;;;;;;;2.03;1.42;;;;;;;24.65;39.06;99030.69;2091839;28;20163;-52
2023/09/06 01:50:01;;;;;;;2.03;1.58;;;;;;;24.70;38.62;99035.44;2089176;28;20048;-51
2023/09/06 01:51:03;;;;;;;4.45;1.83;;;;;;;24.71;38.83;99035.22;2092145;28;20409;-49
2023/09/06 01:52:05;;;;;;;3.33;2.38;;;;;;;24.68;38.88;99032.97;2086588;28;20048;-51
2023/09/06 01:53:07;;;;;;;3.88;1.90;;;;;;;24.68;39.03;99027.56;2090974;28;20093;-50
2023/09/06 01:54:09;;;;;;;3.88;2.10;;;;;;;24.68;38.70;99027.56;2089245;28;20055;-53
2023/09/06 01:55:12;;;;;;;4.97;2.10;;;;;;;24.72;38.75;99033.31;2085832;28;20052;-51
2023/09/06 01:56:13;;;;;;;2.83;1.77;;;;;;;24.65;39.10;99038.84;2091002;28;20045;-54
2023/09/06 01:57:15;;;;;;;2.58;1.90;;;;;;;24.65;39.08;99030.69;2089999;28;20050;-53
2023/09/06 01:58:16;;;;;;;2.35;1.48;;;;;;;24.66;39.17;99036.97;2091712;28;20059;-53
2023/09/06 01:59:18;;;;;;;3.45;1.75;;;;;;;24.65;39.09;99024.47;2091780;28;20699;-54
2023/09/06 02:00:21;;;;;;;1.63;1.50;;;;;;;24.66;38.77;99031.56;2089005;28;20082;-51
2023/09/06 02:01:23;;;;;;;2.20;1.90;;;;;;;24.64;38.94;99025.53;2090435;28;20051;-54
2023/09/06 02:02:24;;;;;;;1.73;1.48;;;;;;;24.65;38.83;99025.28;2088788;28;20047;-53
2023/09/06 02:03:27;;;;;;;2.13;1.60;;;;;;;24.64;39.04;99029.06;2087415;28;20520;-53
2023/09/06 02:04:27;;;;;;;2.35;1.75;;;;;;;24.66;39.20;99028.84;2088673;28;20120;-53
2023/09/06 02:05:31;;;;;;;2.58;1.70;;;;;;;24.62;38.87;99025.75;2092957;28;20736;-51
2023/09/06 02:06:32;;;;;;;1.80;1.60;;;;;;;24.55;39.34;99029.66;2090936;28;20041;-53
2023/09/06 02:07:33;;;;;;;2.72;1.48;;;;;;;24.59;38.89;99031.63;2092927;28;20340;-53
2023/09/06 02:08:35;;;;;;;2.45;2.13;;;;;;;24.59;38.89;99026.22;2096258;28;20104;-53
2023/09/06 02:09:36;;;;;;;3.83;1.90;;;;;;;24.65;39.26;99041.53;2092364;28;20044;-54
2023/09/06 02:10:40;;;;;;;2.13;1.65;;;;;;;24.63;38.57;99032.03;2087933;28;20044;-51
2023/09/06 02:11:41;;;;;;;3.72;2.13;;;;;;;24.63;38.74;99038.25;2080636;28;20048;-52
2023/09/06 02:12:44;;;;;;;1.98;1.70;;;;;;;24.64;39.02;99034.47;2087510;28;20055;-54
2023/09/06 02:13:44;;;;;;;4.18;2.00;;;;;;;24.58;39.18;99037.31;2091847;28;20040;-53
2023/09/06 02:14:46;;;;;;;4.22;2.05;;;;;;;24.61;39.28;99037.66;2093715;28;20048;-53
2023/09/06 02:15:47;;;;;;;3.95;2.00;;;;;;;24.61;39.34;99034.94;2091154;28;20056;-54
2023/09/06 02:16:50;;;;;;;1.83;1.67;;;;;;;24.66;39.15;99039.69;2094743;28;20071;-52
2023/09/06 02:17:51;;;;;;;3.42;1.33;;;;;;;24.65;39.16;99030.69;2089794;28;20052;-52
2023/09/06 02:18:53;;;;;;;2.65;1.73;;;;;;;24.66;39.06;99026.13;2090879;28;20174;-54
2023/09/06 02:19:53;;;;;;;3.45;1.67;;;;;;;24.63;39.21;99030.13;2090751;28;20556;-52
2023/09/06 02:20:56;;;;;;;1.70;1.52;;;;;;;24.62;39.42;99030.34;2085637;28;20060;-54
2023/09/06 02:21:57;;;;;;;2.85;2.10;;;;;;;24.62;39.20;99033.88;2087281;28;20158;-54
2023/09/06 02:22:59;;;;;;;2.35;1.80;;;;;;;24.62;38.90;99025.75;2086606;28;20941;-53
2023/09/06 02:24:00;;;;;;;1.88;1.33;;;;;;;24.56;39.11;99028.56;2089112;28;21001;-54
2023/09/06 02:25:01;;;;;;;2.17;1.67;;;;;;;24.62;39.50;99024.94;2092416;28;20131;-50
2023/09/06 02:26:04;;;;;;;1.60;1.40;;;;;;;24.63;39.09;99032.84;2088870;28;20068;-52
2023/09/06 02:27:05;;;;;;;1.95;1.70;;;;;;;24.62;39.47;99024.94;2091045;28;20056;-52
2023/09/06 02:28:07;;;;;;;3.75;1.75;;;;;;;24.51;39.20;99024.66;2089682;28;20049;-49
2023/09/06 02:29:08;;;;;;;3.70;1.65;;;;;;;24.47;39.61;99028.09;2088863;28;20092;-48
2023/09/06 02:30:10;;;;;;;1.77;1.45;;;;;;;24.48;39.32;99018.88;2091335;28;20518;-54
2023/09/06 02:31:11;;;;;;;1.45;1.33;;;;;;;24.58;39.43;99018.34;2092970;28;20774;-51
2023/09/06 02:32:13;;;;;;;3.55;1.77;;;;;;;24.61;39.24;99013.25;2089183;28;20142;-48
2023/09/06 02:33:14;;;;;;;3.33;1.98;;;;;;;24.63;39.53;99013.84;2092865;28;20051;-54
2023/09/06 02:34:16;;;;;;;1.83;1.50;;;;;;;24.63;39.53;99013.84;2090086;28;20147;-52
2023/09/06 02:35:17;;;;;;;2.90;1.40;;;;;;;24.56;39.58;99015.03;2090311;28;20142;-52
2023/09/06 02:36:19;;;;;;;2.95;1.88;;;;;;;24.57;39.23;99011.22;2086534;28;20060;-53
2023/09/06 02:37:20;;;;;;;3.95;1.75;;;;;;;24.58;39.68;99007.47;2087379;28;20052;-51
2023/09/06 02:38:21;;;;;;;6.15;1.98;;;;;;;24.61;39.45;99013.25;2093949;28;20040;-53
2023/09/06 02:39:25;;;;;;;1.40;1.30;;;;;;;24.61;39.62;99010.53;2087578;28;20979;-53
2023/09/06 02:40:27;;;;;;;1.85;1.50;;;;;;;24.61;39.39;99004.28;2088501;28;20044;-52
2023/09/06 02:41:29;;;;;;;3.80;1.55;;;;;;;24.58;39.29;99012.91;2092670;28;20052;-52
2023/09/06 02:42:31;;;;;;;5.00;2.05;;;;;;;24.53;39.42;99024.44;2088892;28;20059;-52
2023/09/06 02:43:32;;;;;;;1.95;1.40;;;;;;;24.50;39.45;99016.78;2090576;28;20048;-51
2023/09/06 02:44:33;;;;;;;2.80;1.50;;;;;;;24.54;39.68;99009.81;2095157;28;20076;-52
2023/09/06 02:45:37;;;;;;;3.13;1.25;;;;;;;24.59;39.77;99014.53;2080257;28;20059;-52
2023/09/06 02:46:38;;;;;;;3.63;1.80;;;;;;;24.49;39.83;98998.88;2087535;28;20051;-52
2023/09/06 02:47:47;;;;;;;1.83;1.70;;;;;;;24.47;39.74;99011.81;2095982;28;20051;-52
2023/09/06 02:48:50;;;;;;;2.42;1.50;;;;;;;24.51;39.78;99010.28;2091861;28;20115;-48
2023/09/06 02:49:55;;;;;;;4.35;1.90;;;;;;;24.46;39.79;99011.00;2090981;28;20562;-49
2023/09/06 02:50:58;;;;;;;3.88;2.20;;;;;;;24.54;39.42;99012.53;2089327;28;20062;-51
2023/09/06 02:52:01;;;;;;;3.75;1.50;;;;;;;24.56;39.54;99015.03;2087593;28;20044;-49
2023/09/06 02:53:03;;;;;;;6.03;1.88;;;;;;;24.49;39.68;99007.81;2085908;28;20044;-49
2023/09/06 02:54:05;;;;;;;2.33;1.60;;;;;;;24.48;39.91;98995.31;2084820;28;20176;-50
2023/09/06 02:55:10;;;;;;;4.53;1.65;;;;;;;24.38;40.07;99007.78;2090762;28;20056;-50
2023/09/06 02:56:14;;;;;;;1.85;1.75;;;;;;;24.48;40.21;99013.47;2088466;28;20651;-48
2023/09/06 02:57:18;;;;;;;1.73;1.63;;;;;;;24.51;39.78;99002.16;2089585;28;20128;-51
2023/09/06 02:58:23;;;;;;;3.63;2.05;;;;;;;24.52;39.85;98999.22;2086851;28;20036;-54
2023/09/06 02:59:24;;;;;;;2.60;1.90;;;;;;;24.56;39.66;99006.88;2091237;28;20501;-49
2023/09/06 03:00:25;;;;;;;2.92;1.50;;;;;;;24.54;39.72;98998.97;2087178;28;20151;-51
2023/09/06 03:01:26;;;;;;;3.83;1.40;;;;;;;24.56;40.01;98998.75;2092532;28;20048;-54
2023/09/06 03:02:27;;;;;;;1.50;1.40;;;;;;;24.55;39.75;99008.78;2090608;28;20106;-49
2023/09/06 03:03:30;;;;;;;3.05;1.90;;;;;;;24.53;39.76;98994.63;2093959;28;20454;-49
2023/09/06 03:04:35;;;;;;;4.75;1.88;;;;;;;24.54;39.94;99007.09;2092876;28;20053;-53
2023/09/06 03:05:41;;;;;;;4.18;1.67;;;;;;;24.51;40.17;98992.13;2091098;28;20157;-53
2023/09/06 03:06:43;;;;;;;4.28;1.70;;;;;;;24.55;40.07;99000.63;2092760;28;20050;-48
2023/09/06 03:07:48;;;;;;;2.88;1.88;;;;;;;24.52;39.81;98993.78;2088508;28;21295;-54
2023/09/06 03:08:52;;;;;;;2.83;1.95;;;;;;;24.52;39.66;98993.78;2089517;28;20065;-52
2023/09/06 03:09:52;;;;;;;2.63;1.90;;;;;;;24.50;40.00;98995.09;2088627;28;20812;-52
2023/09/06 03:10:54;;;;;;;2.00;1.40;;;;;;;24.44;39.88;99001.44;2090685;28;20051;-50
2023/09/06 03:11:55;;;;;;;3.15;1.50;;;;;;;24.46;40.10;98996.59;2092596;28;20067;-51
2023/09/06 03:12:59;;;;;;;1.70;1.50;;;;;;;24.52;40.23;99001.09;2089982;28;20480;-50
2023/09/06 03:14:02;;;;;;;2.15;1.67;;;;;;;24.52;40.14;99001.94;2091985;28;22363;-48
2023/09/06 03:15:08;;;;;;;5.10;2.08;;;;;;;24.41;40.40;99001.88;2090222;28;20058;-49
2023/09/06 03:16:13;;;;;;;1.98;1.58;;;;;;;24.46;40.32;98993.88;2092458;28;20047;-53
2023/09/06 03:17:18;;;;;;;1.77;1.33;;;;;;;24.43;40.51;98999.75;2094049;28;20043;-53
2023/09/06 03:18:20;;;;;;;3.03;1.48;;;;;;;24.40;40.06;99009.16;2089111;28;20059;-52
2023/09/06 03:19:20;;;;;;;5.07;1.77;;;;;;;24.38;40.24;98991.50;2090193;28;20117;-52
2023/09/06 03:20:31;;;;;;;4.80;1.85;;;;;;;24.46;40.49;98996.59;2094547;28;20129;-54
2023/09/06 03:21:34;;;;;;;;;;;;;;;24.34;40.32;98993.00;2094374;28;20514;-50
2023/09/06 03:22:37;;;;;;;1.60;1.50;;;;;;;24.33;40.39;98994.91;2093418;28;19928;-52
2023/09/06 03:23:38;;;;;;;2.45;2.20;;;;;;;24.39;40.46;98988.53;2094115;28;20490;-52
2023/09/06 03:24:41;;;;;;;2.08;1.60;;;;;;;24.43;40.38;98987.06;2092109;28;20053;-52
2023/09/06 03:25:42;;;;;;;2.42;1.55;;;;;;;24.39;40.44;98990.44;2087909;28;20056;-51
2023/09/06 03:26:44;;;;;;;2.25;1.70;;;;;;;24.43;40.24;98994.31;2090080;28;20048;-52
2023/09/06 03:27:45;;;;;;;2.70;1.83;;;;;;;24.42;40.47;98992.69;2094306;28;20044;-53
2023/09/06 03:28:48;;;;;;;4.90;1.77;;;;;;;24.40;40.42;98987.47;2088222;28;20101;-51
2023/09/06 03:29:51;;;;;;;4.20;1.75;;;;;;;24.42;40.49;98989.97;2087298;28;20051;-49
2023/09/06 03:30:53;;;;;;;3.30;1.92;;;;;;;24.43;40.39;98989.78;2091176;28;20483;-50
2023/09/06 03:31:53;;;;;;;2.38;1.92;;;;;;;24.41;40.21;98988.31;2091158;28;20171;-53
2023/09/06 03:32:56;;;;;;;2.65;2.00;;;;;;;24.40;40.44;98998.31;2092802;28;20048;-51
2023/09/06 03:33:57;;;;;;;2.92;2.13;;;;;;;24.45;40.05;98986.81;2089377;28;20051;-50
2023/09/06 03:34:59;;;;;;;3.80;2.00;;;;;;;24.46;40.29;98993.88;2096539;28;20687;-51
2023/09/06 03:35:59;;;;;;;3.92;2.10;;;;;;;24.47;40.21;98992.84;2090524;28;20048;-49
2023/09/06 03:37:04;;;;;;;1.92;1.58;;;;;;;24.45;40.31;98993.06;2089281;28;20048;-51
2023/09/06 03:38:08;;;;;;;1.75;1.50;;;;;;;24.44;40.13;98986.00;2091056;28;20052;-55
2023/09/06 03:39:13;;;;;;;2.67;1.85;;;;;;;24.39;40.28;98987.72;2091680;28;20056;-48
2023/09/06 03:40:25;;;;;;;4.97;2.08;;;;;;;24.41;40.13;98982.91;2090192;28;20441;-52
2023/09/06 03:41:27;;;;;;;1.90;1.27;;;;;;;24.39;40.54;98991.25;2093688;28;20127;-50
2023/09/06 03:42:28;;;;;;;3.55;1.38;;;;;;;24.43;40.34;98978.94;2093563;28;20051;-49
2023/09/06 03:43:31;;;;;;;3.33;2.03;;;;;;;24.38;40.49;98983.38;2092429;28;20592;-53
2023/09/06 03:44:34;;;;;;;1.63;1.38;;;;;;;24.44;40.41;98980.56;2089150;28;20112;-52
2023/09/06 03:45:36;;;;;;;2.00;1.55;;;;;;;24.44;40.46;98987.88;2088533;28;21196;-50
2023/09/06 03:46:37;;;;;;;4.50;1.88;;;;;;;24.39;40.22;98985.00;2088783;28;20048;-50
2023/09/06 03:47:38;;;;;;;2.33;2.00;;;;;;;24.41;40.52;98986.44;2091624;28;20302;-49
2023/09/06 03:48:40;;;;;;;2.25;1.63;;;;;;;24.43;40.52;98997.03;2091319;27;20078;-52
2023/09/06 03:49:43;;;;;;;2.53;1.83;;;;;;;24.41;40.04;98991.84;2091624;28;20044;-50
2023/09/06 03:50:45;;;;;;;2.80;2.42;;;;;;;24.42;40.33;98990.78;2088393;28;20056;-54
2023/09/06 03:51:48;;;;;;;3.00;2.50;;;;;;;24.42;40.58;98998.09;2082153;28;20464;-52
2023/09/06 03:52:50;;;;;;;3.17;1.60;;;;;;;24.41;40.27;99000.00;2090367;28;20048;-53
2023/09/06 03:53:52;;;;;;;6.78;2.10;;;;;;;24.45;40.41;98992.25;2089851;28;20139;-48
2023/09/06 03:54:53;;;;;;;1.95;1.75;;;;;;;24.41;40.17;98991.84;2091190;28;20055;-49
2023/09/06 03:55:56;;;;;;;2.65;1.35;;;;;;;24.42;40.86;98990.78;2090972;28;20071;-51
2023/09/06 03:56:57;;;;;;;2.50;1.58;;;;;;;24.44;40.18;98982.47;2093369;28;20048;-52
2023/09/06 03:57:59;;;;;;;3.17;1.90;;;;;;;24.43;40.64;98989.78;2092230;28;20093;-50
2023/09/06 03:59:00;;;;;;;1.48;1.38;;;;;;;24.42;40.37;98977.22;2089546;28;20059;-52
2023/09/06 04:01:25;;;;;;;2.00;1.75;;;;;;;24.42;40.75;98987.25;2094207;28;20059;-54
2023/09/06 04:02:27;;;;;;;4.57;1.83;;;;;;;24.42;40.65;98992.69;2090631;28;20142;-52
2023/09/06 04:03:30;;;;;;;3.40;1.88;;;;;;;24.44;40.34;98996.84;2092644;28;21378;-52
2023/09/06 04:04:31;;;;;;;3.08;1.85;;;;;;;24.45;40.26;98993.06;2088506;28;20075;-52
2023/09/06 04:05:33;;;;;;;2.85;2.05;;;;;;;24.42;40.73;98989.97;2090825;28;20076;-53
2023/09/06 04:06:34;;;;;;;1.95;1.75;;;;;;;24.37;40.88;98992.53;2090413;28;20102;-53
2023/09/06 04:07:36;;;;;;;3.50;2.00;;;;;;;24.34;40.94;98999.25;2093007;28;20049;-56
2023/09/06 04:08:38;;;;;;;2.70;1.50;;;;;;;24.33;41.13;98988.66;2095371;28;20052;-49
2023/09/06 04:09:39;;;;;;;4.35;2.42;;;;;;;24.38;40.49;98994.22;2095019;28;22287;-50
2023/09/06 04:10:44;;;;;;;2.42;1.98;;;;;;;24.40;40.46;99001.03;2090789;28;20142;-56
2023/09/06 04:11:46;;;;;;;2.63;2.42;;;;;;;24.41;40.59;98997.28;2092677;28;20164;-52
2023/09/06 04:12:50;;;;;;;3.80;1.90;;;;;;;24.39;40.57;98999.38;2090823;28;20140;-49
2023/09/06 04:13:55;;;;;;;4.80;1.60;;;;;;;24.37;40.84;98992.53;2091251;28;20633;-49
2023/09/06 04:14:57;;;;;;;5.05;1.27;;;;;;;24.41;40.56;98996.47;2092076;28;20079;-50
2023/09/06 04:16:00;;;;;;;3.17;1.75;;;;;;;24.42;40.43;99003.53;2086522;28;20089;-48
2023/09/06 04:17:01;;;;;;;3.00;1.80;;;;;;;24.42;40.80;99003.53;2091308;28;20148;-49
2023/09/06 04:18:04;;;;;;;1.85;1.38;;;;;;;24.41;40.85;98999.16;2093116;28;20064;-52
2023/09/06 04:19:06;;;;;;;2.50;2.05;;;;;;;24.40;40.59;99011.88;2086630;28;20044;-50
2023/09/06 04:20:19;;;;;;;2.63;2.05;;;;;;;24.39;40.79;99009.41;2091898;28;20052;-51
2023/09/06 04:21:22;;;;;;;2.53;2.05;;;;;;;24.37;40.57;99006.09;2088836;28;20051;-50
2023/09/06 04:22:23;;;;;;;2.50;1.90;;;;;;;24.39;40.66;99006.72;2097226;28;20420;-51
2023/09/06 04:23:25;;;;;;;3.88;1.88;;;;;;;24.40;40.64;99008.34;2091079;28;21443;-49
2023/09/06 04:24:26;;;;;;;2.60;1.90;;;;;;;24.41;40.55;99001.88;2094133;28;20047;-53
2023/09/06 04:25:28;;;;;;;1.88;1.77;;;;;;;24.43;40.75;99007.88;2091445;28;20051;-52
2023/09/06 04:26:29;;;;;;;2.33;1.80;;;;;;;24.41;40.56;98999.16;2093798;28;20494;-51
2023/09/06 04:27:31;;;;;;;2.35;1.58;;;;;;;24.42;40.43;99008.94;2090747;28;20048;-49
2023/09/06 04:28:32;;;;;;;3.22;1.40;;;;;;;24.37;40.69;99004.22;2089511;28;20425;-50
2023/09/06 04:29:34;;;;;;;1.88;1.70;;;;;;;24.39;41.00;99004.00;2090844;28;20040;-52
2023/09/06 04:30:36;;;;;;;4.03;1.30;;;;;;;24.36;40.99;99015.31;2088258;28;20099;-50
2023/09/06 04:31:42;;;;;;;6.35;2.13;;;;;;;24.39;40.82;99009.41;2091298;28;20115;-51
2023/09/06 04:32:44;;;;;;;2.83;1.70;;;;;;;24.39;40.74;98998.56;2087470;28;20056;-52
2023/09/06 04:33:46;;;;;;;5.22;1.50;;;;;;;24.33;41.11;99015.78;2085484;28;20164;-51
2023/09/06 04:34:47;;;;;;;3.05;1.90;;;;;;;24.34;40.97;99020.94;2090246;28;20044;-53
2023/09/06 04:35:50;;;;;;;2.63;1.63;;;;;;;24.38;40.84;99021.31;2089330;28;20452;-49
2023/09/06 04:36:51;;;;;;;2.78;1.95;;;;;;;24.36;41.11;99016.13;2088301;28;20060;-49
2023/09/06 04:37:53;;;;;;;2.13;1.92;;;;;;;24.37;41.00;99022.38;2090279;28;20139;-51
2023/09/06 04:38:56;;;;;;;4.15;2.28;;;;;;;24.37;41.28;99020.47;2090248;28;20079;-49
2023/09/06 04:39:56;;;;;;;2.65;1.63;;;;;;;24.39;40.84;99022.97;2092115;28;20410;-50
2023/09/06 04:40:59;;;;;;;4.15;2.03;;;;;;;24.38;41.11;99018.63;2093856;28;20080;-51
2023/09/06 04:42:00;;;;;;;4.97;1.90;;;;;;;24.40;40.97;99006.47;2087965;28;20611;-52
2023/09/06 04:43:01;;;;;;;1.75;1.42;;;;;;;24.40;40.94;99008.34;2086006;28;20106;-49
2023/09/06 04:44:03;;;;;;;2.35;1.80;;;;;;;24.41;41.00;99010.84;2089318;28;21072;-52
2023/09/06 04:45:05;;;;;;;3.05;1.40;;;;;;;24.40;41.18;99006.47;2090172;28;20143;-51
2023/09/06 04:46:08;;;;;;;2.75;2.08;;;;;;;24.37;40.89;99011.53;2093451;28;20071;-49
2023/09/06 04:47:14;;;;;;;3.83;2.25;;;;;;;24.36;41.15;99002.56;2089199;28;20787;-50
2023/09/06 04:48:17;;;;;;;3.17;1.80;;;;;;;24.38;41.35;99013.19;2090544;28;20576;-49
2023/09/06 04:49:18;;;;;;;4.22;2.17;;;;;;;24.31;40.99;99019.53;2086993;28;20125;-50
2023/09/06 04:50:20;;;;;;;4.80;2.05;;;;;;;24.28;41.20;99024.59;2089601;28;20040;-51
2023/09/06 04:51:21;;;;;;;2.50;1.75;;;;;;;24.37;40.81;99017.75;2088060;28;20047;-48
2023/09/06 04:52:24;;;;;;;2.75;1.67;;;;;;;24.37;40.90;99030.50;2092731;28;20417;-52
2023/09/06 04:53:25;;;;;;;2.75;2.55;;;;;;;24.36;41.21;99032.38;2085360;28;20052;-50
2023/09/06 04:54:27;;;;;;;4.55;1.88;;;;;;;24.40;41.26;99022.72;2084874;27;20264;-52
2023/09/06 04:55:28;;;;;;;7.35;2.20;;;;;;;24.39;41.08;99020.25;2089657;28;20052;-50